Time;durP1;ratioP1;P1;durP2;ratioP2;P2;SDS_P1;SDS_P2;PMS_P1;PMS_P2;Temp;Humidity;BMP_temperature;BMP_pressure;BME280_temperature;BME280_humidity;BME280_pressure;Samples;Min_cycle;Max_cycle;Signal;HPM_P1;HPM_P2
2022/01/03 00:00:17;;;;;;;0.60;0.60;;;1.60;99.90;;;;;;5070457;28;20291;-77
2022/01/03 00:02:44;;;;;;;0.50;0.50;;;1.50;99.90;;;;;;5071186;28;20683;-76
2022/01/03 00:05:10;;;;;;;0.60;0.60;;;1.50;99.90;;;;;;5064791;28;20208;-76
2022/01/03 00:07:41;;;;;;;0.60;0.60;;;1.40;99.90;;;;;;5074941;28;20201;-75
2022/01/03 00:10:08;;;;;;;0.60;0.60;;;1.40;99.90;;;;;;5072234;28;20261;-76
2022/01/03 00:12:33;;;;;;;0.65;0.65;;;1.40;99.90;;;;;;5070846;28;20699;-76
2022/01/03 00:15:00;;;;;;;0.70;0.70;;;1.30;99.90;;;;;;5072082;28;20295;-76
2022/01/03 00:17:26;;;;;;;0.60;0.60;;;1.30;99.90;;;;;;5070817;28;20714;-76
2022/01/03 00:19:52;;;;;;;0.60;0.60;;;1.30;99.90;;;;;;5054853;28;20204;-76
2022/01/03 00:22:21;;;;;;;0.55;0.55;;;1.30;99.90;;;;;;5072106;28;20205;-76
2022/01/03 00:25:04;;;;;;;0.50;0.50;;;1.40;99.90;;;;;;5045320;28;20676;-76
2022/01/03 00:27:57;;;;;;;0.80;0.80;;;1.40;99.90;;;;;;5064804;28;20262;-76
2022/01/03 00:30:25;;;;;;;0.77;0.77;;;1.30;99.90;;;;;;5053772;28;20212;-76
2022/01/03 00:32:51;;;;;;;0.52;0.52;;;1.40;99.90;;;;;;5053860;28;20228;-76
2022/01/03 00:35:19;;;;;;;0.60;0.60;;;1.40;99.90;;;;;;5070702;28;20216;-76
2022/01/03 00:37:46;;;;;;;0.65;0.65;;;1.40;99.90;;;;;;5052799;28;20292;-77
2022/01/03 00:40:18;;;;;;;0.63;0.63;;;1.40;99.90;;;;;;5071720;28;20224;-76
2022/01/03 00:42:43;;;;;;;0.60;0.60;;;1.40;99.90;;;;;;5053158;28;20205;-76
2022/01/03 00:45:10;;;;;;;0.73;0.73;;;1.40;99.90;;;;;;5070789;28;20204;-76
2022/01/03 00:47:36;;;;;;;0.70;0.70;;;1.40;99.90;;;;;;5054513;28;20756;-76
2022/01/03 00:50:05;;;;;;;0.73;0.73;;;1.40;99.90;;;;;;5070985;28;20702;-76
2022/01/03 00:52:31;;;;;;;0.70;0.70;;;1.40;99.90;;;;;;5071268;28;20204;-76
2022/01/03 00:54:57;;;;;;;0.60;0.60;;;1.40;99.90;;;;;;5053401;28;20213;-76
2022/01/03 00:57:53;;;;;;;0.50;0.50;;;1.40;99.90;;;;;;5086391;28;20220;-76
2022/01/03 01:00:19;;;;;;;0.60;0.60;;;1.30;99.90;;;;;;5052213;28;20261;-76
2022/01/03 01:03:09;;;;;;;0.60;0.60;;;1.30;99.90;;;;;;5072630;28;20193;-76
2022/01/03 01:05:36;;;;;;;0.60;0.60;;;1.20;99.90;;;;;;5071364;28;20200;-76
2022/01/03 01:08:02;;;;;;;2.55;1.75;;;1.20;99.90;;;;;;5071676;28;20238;-76
2022/01/03 01:10:33;;;;;;;0.60;0.60;;;1.20;99.90;;;;;;5054230;28;20216;-76
2022/01/03 01:13:01;;;;;;;0.70;0.70;;;1.20;99.90;;;;;;5072495;28;20694;-76
2022/01/03 01:15:29;;;;;;;10.05;2.53;;;1.20;99.90;;;;;;5052932;28;20201;-76
2022/01/03 01:17:56;;;;;;;0.68;0.68;;;1.20;99.90;;;;;;5070357;28;20209;-76
2022/01/03 01:20:24;;;;;;;0.65;0.65;;;1.20;99.90;;;;;;5070168;28;20197;-76
2022/01/03 01:22:50;;;;;;;0.60;0.60;;;1.30;99.90;;;;;;5053227;28;20224;-76
2022/01/03 01:27:50;;;;;;;0.80;0.80;;;1.30;99.90;;;;;;5071549;28;20212;-77
2022/01/03 01:30:17;;;;;;;0.70;0.70;;;1.20;99.90;;;;;;5052915;28;20200;-77
2022/01/03 01:32:51;;;;;;;0.70;0.70;;;1.20;99.90;;;;;;5035860;28;20552;-77
2022/01/03 01:35:20;;;;;;;0.68;0.68;;;1.10;99.90;;;;;;5053811;28;20208;-76
2022/01/03 01:37:52;;;;;;;0.60;0.60;;;1.00;99.90;;;;;;5069968;28;20216;-76
2022/01/03 01:40:21;;;;;;;0.70;0.70;;;1.00;99.90;;;;;;5086472;28;20220;-77
2022/01/03 01:42:48;;;;;;;0.60;0.60;;;0.90;99.90;;;;;;5071218;28;20706;-76
2022/01/03 01:45:17;;;;;;;0.60;0.60;;;1.00;99.90;;;;;;5052537;28;20193;-76
2022/01/03 01:47:44;;;;;;;2.15;1.88;;;0.90;99.90;;;;;;5053570;28;20688;-77
2022/01/03 01:50:10;;;;;;;0.68;0.68;;;1.00;99.90;;;;;;5071233;28;20196;-77
2022/01/03 01:52:38;;;;;;;0.60;0.60;;;1.00;99.90;;;;;;5068544;28;20294;-76
2022/01/03 01:55:11;;;;;;;0.55;0.55;;;0.90;99.90;;;;;;5070732;28;20228;-76
2022/01/03 01:58:02;;;;;;;0.63;0.63;;;0.80;99.90;;;;;;5070598;28;20269;-77
2022/01/03 02:00:28;;;;;;;0.90;0.90;;;0.80;99.90;;;;;;5036338;28;20227;-78
2022/01/03 02:03:15;;;;;;;0.70;0.70;;;0.90;99.90;;;;;;5073523;28;20192;-77
2022/01/03 02:05:51;;;;;;;0.60;0.60;;;0.90;99.90;;;;;;5059235;28;20209;-78
2022/01/03 02:08:44;;;;;;;0.60;0.60;;;1.00;99.90;;;;;;5074425;28;20201;-78
2022/01/03 02:11:32;;;;;;;0.70;0.70;;;1.00;99.90;;;;;;5073447;28;20207;-78
2022/01/03 02:13:59;;;;;;;0.68;0.68;;;0.90;99.90;;;;;;5074360;28;20288;-77
2022/01/03 02:16:25;;;;;;;0.70;0.70;;;0.90;99.90;;;;;;5057082;28;20204;-77
2022/01/03 02:18:51;;;;;;;0.57;0.57;;;1.20;99.90;;;;;;5073469;28;20227;-78
2022/01/03 02:21:18;;;;;;;0.65;0.65;;;1.20;99.90;;;;;;5068589;28;20201;-78
2022/01/03 02:23:44;;;;;;;0.55;0.55;;;1.20;99.90;;;;;;5056334;28;20249;-78
2022/01/03 02:26:11;;;;;;;0.80;0.80;;;1.20;99.90;;;;;;5068264;28;20296;-77
2022/01/03 02:28:37;;;;;;;0.70;0.70;;;1.10;99.90;;;;;;5055919;28;20197;-78
2022/01/03 02:31:03;;;;;;;0.60;0.60;;;1.10;99.90;;;;;;5056076;28;20204;-77
2022/01/03 02:33:29;;;;;;;0.70;0.70;;;1.10;99.90;;;;;;5055879;28;20201;-78
2022/01/03 02:35:54;;;;;;;0.75;0.75;;;1.00;99.90;;;;;;5056157;28;20209;-77
2022/01/03 02:38:20;;;;;;;0.60;0.60;;;1.00;99.90;;;;;;5074032;28;20660;-78
2022/01/03 02:40:46;;;;;;;0.60;0.60;;;1.00;99.90;;;;;;5039620;28;20225;-77
2022/01/03 02:43:11;;;;;;;0.55;0.55;;;1.00;99.90;;;;;;5051711;28;20206;-77
2022/01/03 02:45:37;;;;;;;0.60;0.60;;;0.90;99.90;;;;;;5072661;28;20278;-78
2022/01/03 02:48:09;;;;;;;0.60;0.60;;;0.90;99.90;;;;;;5066867;28;20640;-78
2022/01/03 02:50:36;;;;;;;0.52;0.52;;;0.90;99.90;;;;;;5072412;28;20695;-78
2022/01/03 02:53:02;;;;;;;0.60;0.60;;;0.90;99.90;;;;;;5072715;28;20727;-78
2022/01/03 02:55:28;;;;;;;0.70;0.70;;;0.90;99.90;;;;;;5072248;28;20215;-78
2022/01/03 02:57:59;;;;;;;0.65;0.65;;;0.90;99.90;;;;;;5057121;28;20643;-77
2022/01/03 03:00:28;;;;;;;0.57;0.57;;;0.90;99.90;;;;;;5071901;28;20741;-78
2022/01/03 03:02:54;;;;;;;0.70;0.70;;;0.90;99.90;;;;;;5064979;28;20201;-77
2022/01/03 03:05:20;;;;;;;0.70;0.70;;;1.00;99.90;;;;;;5057830;28;20254;-78
2022/01/03 03:07:46;;;;;;;0.70;0.70;;;0.90;99.90;;;;;;5054598;28;20622;-78
2022/01/03 03:10:15;;;;;;;0.60;0.60;;;1.00;99.90;;;;;;5073535;28;20704;-78
2022/01/03 03:12:41;;;;;;;0.55;0.55;;;1.00;99.90;;;;;;5055804;28;20216;-77
2022/01/03 03:15:09;;;;;;;0.80;0.80;;;1.00;99.90;;;;;;5056745;28;20231;-77
2022/01/03 03:17:36;;;;;;;0.70;0.70;;;1.00;99.90;;;;;;5061230;28;20657;-78
2022/01/03 03:20:06;;;;;;;0.60;0.60;;;1.00;99.90;;;;;;5050377;28;20693;-78
2022/01/03 03:22:32;;;;;;;0.60;0.60;;;1.00;99.90;;;;;;5073260;28;20205;-78
2022/01/03 03:25:12;;;;;;;0.60;0.60;;;1.10;99.90;;;;;;5073424;28;20681;-78
2022/01/03 03:27:43;;;;;;;0.50;0.50;;;1.10;99.90;;;;;;5063807;28;20215;-78
2022/01/03 03:30:15;;;;;;;0.95;0.90;;;1.10;99.90;;;;;;5072451;28;20258;-78
2022/01/03 03:32:43;;;;;;;0.60;0.60;;;1.10;99.90;;;;;;5061025;28;20634;-78
2022/01/03 03:35:09;;;;;;;0.60;0.60;;;1.20;99.90;;;;;;5067031;28;20277;-78
2022/01/03 03:37:35;;;;;;;0.70;0.70;;;1.20;99.90;;;;;;5060455;28;20203;-78
2022/01/03 03:40:01;;;;;;;0.50;0.50;;;1.20;99.90;;;;;;5071613;28;20213;-78
2022/01/03 03:42:27;;;;;;;0.63;0.63;;;1.20;99.90;;;;;;5072715;28;20228;-77
2022/01/03 03:44:53;;;;;;;0.80;0.80;;;1.20;99.90;;;;;;5071836;28;20232;-78
2022/01/03 03:47:19;;;;;;;0.50;0.50;;;1.20;99.90;;;;;;5072650;28;20205;-78
2022/01/03 03:49:44;;;;;;;0.50;0.50;;;1.10;99.90;;;;;;5071373;28;20205;-78
2022/01/03 03:52:10;;;;;;;0.80;0.80;;;1.20;99.90;;;;;;5055732;28;20234;-78
2022/01/03 03:54:36;;;;;;;0.70;0.70;;;1.20;99.90;;;;;;5055376;28;20584;-78
2022/01/03 03:57:04;;;;;;;0.63;0.63;;;1.20;99.90;;;;;;5071216;28;20239;-78
2022/01/03 03:59:30;;;;;;;0.60;0.60;;;1.20;99.90;;;;;;5071184;28;20220;-77
2022/01/03 04:01:57;;;;;;;0.90;0.90;;;1.20;99.90;;;;;;5045982;28;20663;-78
2022/01/03 04:04:23;;;;;;;0.60;0.60;;;1.20;99.90;;;;;;5071927;28;20228;-78
2022/01/03 04:06:49;;;;;;;0.60;0.60;;;1.20;99.90;;;;;;5071229;28;20681;-78
2022/01/03 04:09:15;;;;;;;0.70;0.70;;;1.30;99.90;;;;;;5072415;28;20202;-78
2022/01/03 04:11:41;;;;;;;0.60;0.60;;;1.30;99.90;;;;;;5072305;28;20197;-78
2022/01/03 04:14:07;;;;;;;0.80;0.80;;;1.30;99.90;;;;;;5072285;28;20664;-77
2022/01/03 04:16:34;;;;;;;0.70;0.70;;;1.30;99.90;;;;;;5054393;28;20201;-79
2022/01/03 04:19:00;;;;;;;0.60;0.60;;;1.30;99.90;;;;;;5071199;28;20220;-77
2022/01/03 04:21:26;;;;;;;0.60;0.60;;;1.30;99.90;;;;;;5071019;28;20205;-78
2022/01/03 04:23:53;;;;;;;0.63;0.63;;;1.40;99.90;;;;;;5055220;28;20591;-78
2022/01/03 04:26:19;;;;;;;0.50;0.50;;;1.40;99.90;;;;;;5054891;28;20668;-77
2022/01/03 04:28:46;;;;;;;0.60;0.60;;;1.40;99.90;;;;;;5055084;28;20231;-77
2022/01/03 04:31:12;;;;;;;0.60;0.60;;;1.40;99.90;;;;;;5055023;28;20580;-78
2022/01/03 04:33:38;;;;;;;0.60;0.60;;;1.50;99.90;;;;;;5054715;28;20204;-78
2022/01/03 04:36:04;;;;;;;0.60;0.60;;;1.50;99.90;;;;;;5071750;28;20300;-77
2022/01/03 04:38:30;;;;;;;0.60;0.60;;;1.50;99.90;;;;;;5071321;28;20694;-78
2022/01/03 04:40:56;;;;;;;0.70;0.70;;;1.50;99.90;;;;;;5054788;28;20204;-78
2022/01/03 04:43:22;;;;;;;0.60;0.60;;;1.50;99.90;;;;;;5071570;28;20216;-78
2022/01/03 04:45:49;;;;;;;1.40;1.20;;;1.60;99.90;;;;;;5070573;28;20244;-78
2022/01/03 04:48:15;;;;;;;0.60;0.60;;;1.60;99.90;;;;;;5070549;28;20215;-77
2022/01/03 04:50:41;;;;;;;0.60;0.60;;;1.70;99.90;;;;;;5071410;28;20718;-77
2022/01/03 04:53:06;;;;;;;0.68;0.68;;;1.60;99.90;;;;;;5053630;28;20232;-77
2022/01/03 04:55:32;;;;;;;0.60;0.60;;;1.60;99.90;;;;;;5053278;28;20212;-78
2022/01/03 04:57:58;;;;;;;0.82;0.82;;;1.60;99.90;;;;;;5043196;28;20212;-77
2022/01/03 05:00:24;;;;;;;0.60;0.60;;;1.50;99.90;;;;;;5071503;28;20628;-77
2022/01/03 05:02:50;;;;;;;0.52;0.52;;;1.50;99.90;;;;;;5070446;28;20223;-78
2022/01/03 05:05:16;;;;;;;0.70;0.70;;;1.60;99.90;;;;;;5071915;28;20296;-78
2022/01/03 05:07:41;;;;;;;0.60;0.60;;;1.70;99.90;;;;;;5070356;28;20262;-78
2022/01/03 05:10:08;;;;;;;0.77;0.77;;;1.70;99.90;;;;;;5070555;28;20634;-77
2022/01/03 05:12:33;;;;;;;0.65;0.65;;;1.60;99.90;;;;;;5070264;28;20252;-78
2022/01/03 05:14:59;;;;;;;0.60;0.60;;;1.50;99.90;;;;;;5053332;28;20209;-77
2022/01/03 05:17:25;;;;;;;0.80;0.80;;;1.50;99.90;;;;;;5071337;28;20204;-78
2022/01/03 05:19:51;;;;;;;0.75;0.75;;;1.50;99.90;;;;;;5053420;28;20290;-77
2022/01/03 05:22:16;;;;;;;0.50;0.50;;;1.50;99.90;;;;;;5070324;28;20205;-78
2022/01/03 05:24:42;;;;;;;0.60;0.60;;;1.40;99.90;;;;;;5071185;28;20576;-78
2022/01/03 05:27:08;;;;;;;0.60;0.60;;;1.40;99.90;;;;;;5070198;28;20254;-78
2022/01/03 05:29:34;;;;;;;0.60;0.60;;;1.50;99.90;;;;;;5053181;28;20218;-78
2022/01/03 05:32:00;;;;;;;0.60;0.60;;;1.40;99.90;;;;;;5070608;28;20223;-78
2022/01/03 05:34:25;;;;;;;0.60;0.60;;;1.50;99.90;;;;;;5070991;28;20277;-77
2022/01/03 05:36:51;;;;;;;0.50;0.50;;;1.60;99.90;;;;;;5073359;28;20282;-76
2022/01/03 05:39:17;;;;;;;0.60;0.60;;;1.70;99.90;;;;;;5046295;28;20250;-77
2022/01/03 05:41:42;;;;;;;0.60;0.60;;;1.70;99.90;;;;;;5032846;28;20198;-77
2022/01/03 05:44:09;;;;;;;0.47;0.47;;;1.70;99.90;;;;;;5034001;28;20218;-77
2022/01/03 05:46:35;;;;;;;0.60;0.60;;;1.80;99.90;;;;;;5034964;28;20685;-76
2022/01/03 05:49:01;;;;;;;0.60;0.60;;;1.80;99.90;;;;;;5034441;28;20206;-77
2022/01/03 05:51:27;;;;;;;0.50;0.50;;;1.80;99.90;;;;;;5032740;28;20210;-77
2022/01/03 05:53:53;;;;;;;0.50;0.50;;;1.80;99.90;;;;;;5032548;28;20241;-77
2022/01/03 05:56:19;;;;;;;0.50;0.50;;;1.80;99.90;;;;;;5032350;28;20705;-77
2022/01/03 05:58:45;;;;;;;0.60;0.60;;;1.70;99.90;;;;;;5031408;28;20249;-77
2022/01/03 06:01:11;;;;;;;0.60;0.60;;;1.70;99.90;;;;;;5033511;28;20677;-78
2022/01/03 06:03:39;;;;;;;0.70;0.70;;;1.70;99.90;;;;;;5032356;28;20206;-78
2022/01/03 06:06:19;;;;;;;0.60;0.60;;;1.70;99.90;;;;;;5034729;28;20210;-77
2022/01/03 06:08:45;;;;;;;0.60;0.60;;;1.70;99.90;;;;;;5033380;28;20707;-77
2022/01/03 06:11:11;;;;;;;0.60;0.60;;;1.70;99.90;;;;;;5032194;28;20236;-78
2022/01/03 06:13:37;;;;;;;0.98;0.98;;;1.60;99.90;;;;;;5034350;28;20272;-77
2022/01/03 06:16:03;;;;;;;0.70;0.70;;;1.60;99.90;;;;;;5034478;28;20256;-78
2022/01/03 06:18:29;;;;;;;0.70;0.70;;;1.60;99.90;;;;;;5031893;28;20211;-78
2022/01/03 06:20:54;;;;;;;0.57;0.57;;;1.60;99.90;;;;;;5031976;28;20206;-78
2022/01/03 06:23:20;;;;;;;0.50;0.50;;;1.70;99.90;;;;;;5031764;28;20705;-78
2022/01/03 06:25:46;;;;;;;0.70;0.70;;;1.70;99.90;;;;;;5032060;28;20205;-78
2022/01/03 06:28:13;;;;;;;0.60;0.60;;;1.70;99.90;;;;;;5032877;28;20210;-78
2022/01/03 06:30:41;;;;;;;0.70;0.70;;;1.70;99.90;;;;;;5033045;28;20317;-78
2022/01/03 06:33:08;;;;;;;0.70;0.70;;;1.70;99.90;;;;;;5034195;28;20206;-78
2022/01/03 06:35:35;;;;;;;0.57;0.57;;;1.60;99.90;;;;;;5032698;28;20210;-78
2022/01/03 06:38:01;;;;;;;0.52;0.52;;;1.60;99.90;;;;;;5034179;28;20670;-78
2022/01/03 06:40:27;;;;;;;0.50;0.50;;;1.70;99.90;;;;;;5032591;28;20752;-78
2022/01/03 06:42:53;;;;;;;0.68;0.68;;;1.70;99.90;;;;;;5032703;28;20209;-77
2022/01/03 06:45:19;;;;;;;0.50;0.50;;;1.70;99.90;;;;;;5031868;28;20669;-77
2022/01/03 06:47:46;;;;;;;0.60;0.60;;;1.70;99.90;;;;;;5031615;28;20209;-78
2022/01/03 06:50:12;;;;;;;0.60;0.60;;;1.70;99.90;;;;;;5032840;28;20289;-78
2022/01/03 06:52:38;;;;;;;0.75;0.75;;;1.70;99.90;;;;;;5032424;28;20241;-78
2022/01/03 06:55:05;;;;;;;0.55;0.55;;;1.70;99.90;;;;;;5033863;28;20618;-77
2022/01/03 06:57:32;;;;;;;0.60;0.60;;;1.70;99.90;;;;;;5027346;28;20205;-77
2022/01/03 06:59:58;;;;;;;3.75;1.58;;;1.70;99.90;;;;;;5031575;28;20205;-77
2022/01/03 07:02:24;;;;;;;0.50;0.50;;;1.70;99.90;;;;;;5032689;28;20202;-77
2022/01/03 07:04:49;;;;;;;0.60;0.60;;;1.80;99.90;;;;;;5032637;28;20220;-78
2022/01/03 07:07:15;;;;;;;0.70;0.70;;;1.70;99.90;;;;;;5031152;28;20206;-77
2022/01/03 07:09:41;;;;;;;0.60;0.60;;;1.70;99.90;;;;;;5031235;28;20673;-77
2022/01/03 07:12:07;;;;;;;0.50;0.50;;;1.70;99.90;;;;;;5033749;28;20653;-77
2022/01/03 07:19:55;;;;;;;0.52;0.52;;;1.60;99.90;;;;;;5033432;28;20352;-78
2022/01/03 07:22:22;;;;;;;0.65;0.65;;;1.50;99.90;;;;;;5032235;28;20201;-77
2022/01/03 07:24:48;;;;;;;0.65;0.65;;;1.50;99.90;;;;;;5030886;28;20198;-77
2022/01/03 07:27:14;;;;;;;0.70;0.70;;;1.50;99.90;;;;;;5032107;28;20203;-78
2022/01/03 07:29:41;;;;;;;0.70;0.70;;;1.50;99.90;;;;;;5031556;28;20548;-78
2022/01/03 07:32:08;;;;;;;0.60;0.60;;;1.50;99.90;;;;;;5031655;28;20457;-77
2022/01/03 07:34:34;;;;;;;0.70;0.70;;;1.60;99.90;;;;;;5030619;28;20231;-78
2022/01/03 07:37:00;;;;;;;0.60;0.60;;;1.60;99.90;;;;;;5031430;28;20206;-77
2022/01/03 07:39:25;;;;;;;0.88;0.88;;;1.60;99.90;;;;;;5031176;28;20784;-78
2022/01/03 07:41:51;;;;;;;0.52;0.52;;;1.60;99.90;;;;;;5032995;28;20202;-78
2022/01/03 07:44:17;;;;;;;0.88;0.88;;;1.60;99.90;;;;;;5032100;28;20305;-77
2022/01/03 07:46:43;;;;;;;0.70;0.70;;;1.60;99.90;;;;;;5030365;28;20198;-79
2022/01/03 07:49:08;;;;;;;0.57;0.57;;;1.60;99.90;;;;;;5031584;28;20638;-78
2022/01/03 07:51:34;;;;;;;0.60;0.60;;;1.60;99.90;;;;;;5032430;28;20210;-78
2022/01/03 07:53:59;;;;;;;0.70;0.70;;;1.60;99.90;;;;;;5031690;28;20198;-78
2022/01/03 07:56:25;;;;;;;0.50;0.50;;;1.60;99.90;;;;;;5031783;28;20268;-77
2022/01/03 07:58:51;;;;;;;0.70;0.70;;;1.70;99.90;;;;;;5023939;28;20202;-78
2022/01/03 08:01:17;;;;;;;0.57;0.57;;;1.70;99.90;;;;;;5031259;28;20195;-78
2022/01/03 08:03:43;;;;;;;0.50;0.50;;;1.70;99.90;;;;;;5031156;28;20209;-78
2022/01/03 08:06:09;;;;;;;0.70;0.70;;;1.70;99.90;;;;;;5032425;28;20281;-78
2022/01/03 08:08:38;;;;;;;0.70;0.70;;;1.70;99.90;;;;;;5032274;28;20218;-78
2022/01/03 08:11:05;;;;;;;0.60;0.60;;;1.70;99.90;;;;;;5031185;28;20202;-78
2022/01/03 08:13:30;;;;;;;0.57;0.57;;;1.60;99.90;;;;;;5030899;28;20240;-78
2022/01/03 08:15:56;;;;;;;0.70;0.70;;;1.60;99.90;;;;;;5030851;28;20243;-78
2022/01/03 08:18:22;;;;;;;0.55;0.55;;;1.70;99.90;;;;;;5030864;28;20209;-78
2022/01/03 08:20:49;;;;;;;0.60;0.60;;;1.70;99.90;;;;;;5031943;28;20194;-81
2022/01/03 08:23:15;;;;;;;0.55;0.55;;;1.70;99.90;;;;;;5032186;28;20209;-79
2022/01/03 08:25:41;;;;;;;0.70;0.70;;;1.70;99.90;;;;;;5032042;28;20568;-78
2022/01/03 08:28:08;;;;;;;0.60;0.60;;;1.80;99.90;;;;;;5032257;28;20198;-78
2022/01/03 08:30:35;;;;;;;0.68;0.68;;;1.90;99.90;;;;;;5013340;28;20631;-77
2022/01/03 08:33:02;;;;;;;0.70;0.70;;;1.90;99.90;;;;;;5031380;28;20720;-78
2022/01/03 08:35:28;;;;;;;0.80;0.80;;;2.00;99.90;;;;;;5031724;28;20213;-77
2022/01/03 08:37:54;;;;;;;0.70;0.70;;;2.00;99.90;;;;;;5029906;28;20293;-78
2022/01/03 08:40:20;;;;;;;0.77;0.77;;;2.10;99.90;;;;;;5063485;28;20300;-77
2022/01/03 08:42:46;;;;;;;0.60;0.60;;;2.10;99.90;;;;;;5071771;28;20211;-78
2022/01/03 08:45:12;;;;;;;5.93;1.48;;;2.00;99.90;;;;;;5065477;28;20725;-78
2022/01/03 08:47:38;;;;;;;1.17;0.95;;;2.10;99.90;;;;;;5071482;28;20204;-78
2022/01/03 08:50:05;;;;;;;0.50;0.50;;;2.10;99.90;;;;;;5064142;28;20279;-78
2022/01/03 08:52:31;;;;;;;0.60;0.60;;;2.00;99.90;;;;;;5054771;28;20576;-78
2022/01/03 08:54:57;;;;;;;1.77;1.10;;;2.00;99.90;;;;;;5070516;28;20208;-78
2022/01/03 08:57:23;;;;;;;1.83;0.90;;;2.10;99.90;;;;;;5053339;28;20201;-78
2022/01/03 08:59:50;;;;;;;0.55;0.52;;;2.10;99.90;;;;;;5065881;28;20634;-78
2022/01/03 09:02:16;;;;;;;0.60;0.60;;;2.10;99.90;;;;;;5057938;28;20698;-78
2022/01/03 09:04:43;;;;;;;0.60;0.60;;;2.10;99.90;;;;;;5054582;28;20296;-78
2022/01/03 09:07:09;;;;;;;0.60;0.60;;;2.10;99.90;;;;;;5053441;28;20234;-78
2022/01/03 09:09:35;;;;;;;0.57;0.57;;;2.10;99.90;;;;;;5041358;28;20205;-77
2022/01/03 09:12:02;;;;;;;0.60;0.60;;;2.10;99.90;;;;;;5048815;28;20208;-78
2022/01/03 09:14:29;;;;;;;0.55;0.55;;;2.10;99.90;;;;;;5069971;28;20254;-78
2022/01/03 09:16:55;;;;;;;0.47;0.47;;;2.00;99.90;;;;;;5068191;28;20676;-79
2022/01/03 09:19:21;;;;;;;0.77;0.77;;;2.00;99.90;;;;;;5049360;28;20203;-78
2022/01/03 09:21:47;;;;;;;0.60;0.60;;;2.10;99.90;;;;;;5060690;28;20261;-78
2022/01/03 09:29:32;;;;;;;0.80;0.80;;;2.10;99.90;;;;;;5071063;28;20718;-78
2022/01/03 09:31:57;;;;;;;0.60;0.60;;;2.10;99.90;;;;;;5053214;28;20206;-78
2022/01/03 09:34:23;;;;;;;0.90;0.90;;;2.20;99.90;;;;;;5053855;28;20208;-78
2022/01/03 09:36:49;;;;;;;0.65;0.65;;;2.30;99.90;;;;;;5053076;28;20201;-77
2022/01/03 09:39:15;;;;;;;0.73;0.63;;;2.30;99.90;;;;;;5041492;28;20588;-77
2022/01/03 09:41:55;;;;;;;0.70;0.70;;;2.30;99.90;;;;;;5030895;28;20541;-78
2022/01/03 09:44:27;;;;;;;0.70;0.70;;;2.30;99.90;;;;;;5029504;28;20206;-77
2022/01/03 09:46:54;;;;;;;0.70;0.70;;;2.30;99.90;;;;;;5031313;28;20590;-77
2022/01/03 09:49:21;;;;;;;0.50;0.50;;;2.30;99.90;;;;;;5029748;28;20688;-78
2022/01/03 09:51:48;;;;;;;1.23;1.13;;;2.40;99.90;;;;;;5031179;28;20728;-78
2022/01/03 09:54:19;;;;;;;0.52;0.52;;;2.50;99.90;;;;;;5031119;28;20285;-78
2022/01/03 09:56:45;;;;;;;0.52;0.52;;;2.50;99.90;;;;;;5029811;28;20305;-77
2022/01/03 09:59:11;;;;;;;0.50;0.50;;;2.60;99.90;;;;;;5031103;28;20678;-77
2022/01/03 10:01:37;;;;;;;0.60;0.60;;;2.60;99.90;;;;;;5029597;28;20248;-77
2022/01/03 10:04:03;;;;;;;1.63;0.75;;;2.70;99.90;;;;;;5028793;28;20655;-77
2022/01/03 10:06:30;;;;;;;0.40;0.40;;;2.70;99.90;;;;;;5030901;28;20582;-78
2022/01/03 10:08:56;;;;;;;0.50;0.50;;;2.70;99.90;;;;;;5029969;28;20240;-78
2022/01/03 10:11:25;;;;;;;0.65;0.65;;;2.70;99.90;;;;;;5029849;28;20648;-78
2022/01/03 10:13:51;;;;;;;0.70;0.70;;;2.70;99.90;;;;;;5029334;28;20207;-77
2022/01/03 10:16:17;;;;;;;0.60;0.60;;;2.80;99.90;;;;;;5029646;28;20221;-78
2022/01/03 10:18:46;;;;;;;0.60;0.60;;;2.80;99.90;;;;;;5028324;28;20577;-76
2022/01/03 10:21:12;;;;;;;0.70;0.70;;;2.90;99.90;;;;;;5030052;28;20305;-77
2022/01/03 10:23:55;;;;;;;1.23;1.13;;;3.00;99.90;;;;;;5034102;28;20206;-77
2022/01/03 10:26:21;;;;;;;0.50;0.50;;;3.10;99.90;;;;;;5032680;28;20217;-77
2022/01/03 10:28:47;;;;;;;0.40;0.40;;;3.20;99.90;;;;;;5034315;28;20228;-76
2022/01/03 10:31:18;;;;;;;0.50;0.50;;;3.40;99.90;;;;;;5034267;28;20206;-78
2022/01/03 10:33:44;;;;;;;0.50;0.50;;;3.30;99.90;;;;;;5034152;28;20206;-78
2022/01/03 10:36:34;;;;;;;0.60;0.60;;;3.40;99.90;;;;;;5033996;28;20210;-78
2022/01/03 10:39:20;;;;;;;0.65;0.65;;;3.50;99.90;;;;;;5043890;28;20212;-77
2022/01/03 10:41:48;;;;;;;0.50;0.50;;;3.70;99.90;;;;;;5072909;28;20659;-78
2022/01/03 10:44:31;;;;;;;1.02;0.98;;;3.70;99.90;;;;;;5055981;28;20201;-78
2022/01/03 10:46:57;;;;;;;0.77;0.77;;;3.80;99.90;;;;;;5073906;28;20200;-78
2022/01/03 10:49:25;;;;;;;0.60;0.60;;;3.90;99.90;;;;;;5073576;28;20211;-79
2022/01/03 10:51:51;;;;;;;0.60;0.60;;;3.90;99.90;;;;;;5074069;28;20200;-80
2022/01/03 10:54:18;;;;;;;0.60;0.60;;;4.00;99.90;;;;;;5056193;28;20212;-78
2022/01/03 10:56:47;;;;;;;0.70;0.70;;;4.00;99.90;;;;;;5072518;28;20559;-78
2022/01/03 10:59:16;;;;;;;0.70;0.70;;;4.10;99.90;;;;;;5055875;28;20205;-78
2022/01/03 11:01:43;;;;;;;0.60;0.60;;;4.10;99.90;;;;;;5073641;28;20200;-78
2022/01/03 11:04:13;;;;;;;0.57;0.57;;;4.00;99.90;;;;;;5072948;28;20201;-78
2022/01/03 11:11:55;;;;;;;0.65;0.65;;;4.10;99.90;;;;;;5073308;28;20208;-78
2022/01/03 11:14:42;;;;;;;0.60;0.60;;;4.00;99.90;;;;;;5071308;28;20249;-80
2022/01/03 11:17:25;;;;;;;0.80;0.80;;;4.00;99.90;;;;;;5073251;28;20570;-79
2022/01/03 11:19:53;;;;;;;0.60;0.60;;;4.20;99.90;;;;;;5072094;28;20193;-78
2022/01/03 11:22:38;;;;;;;0.60;0.60;;;4.20;99.90;;;;;;5071796;28;20714;-78
2022/01/03 11:25:06;;;;;;;0.70;0.70;;;4.30;99.90;;;;;;5055296;28;20204;-79
2022/01/03 11:27:38;;;;;;;0.63;0.63;;;4.30;99.90;;;;;;5071982;28;20208;-79
2022/01/03 11:30:04;;;;;;;0.68;0.68;;;4.10;99.90;;;;;;5073058;28;20209;-79
2022/01/03 11:32:32;;;;;;;0.52;0.52;;;4.10;99.90;;;;;;5055522;28;20250;-78
2022/01/03 11:35:00;;;;;;;0.60;0.60;;;4.10;99.90;;;;;;5072419;28;20291;-79
2022/01/03 11:37:32;;;;;;;0.70;0.70;;;4.10;99.90;;;;;;5055738;28;20683;-78
2022/01/03 11:40:02;;;;;;;0.60;0.60;;;4.10;99.90;;;;;;5055163;28;20237;-79
2022/01/03 11:42:29;;;;;;;0.70;0.70;;;4.20;99.90;;;;;;5055697;28;20201;-78
2022/01/03 11:44:55;;;;;;;0.60;0.60;;;4.30;99.90;;;;;;5071815;28;20213;-78
2022/01/03 11:47:21;;;;;;;0.50;0.50;;;4.30;99.90;;;;;;5071696;28;20216;-76
2022/01/03 11:49:50;;;;;;;0.70;0.70;;;4.20;99.90;;;;;;5071697;28;20250;-78
2022/01/03 11:52:16;;;;;;;0.68;0.68;;;4.20;99.90;;;;;;5071893;28;20197;-78
2022/01/03 11:54:43;;;;;;;0.52;0.52;;;4.10;99.90;;;;;;5071315;28;20287;-78
2022/01/03 11:57:21;;;;;;;0.65;0.65;;;4.20;99.90;;;;;;5053814;28;20204;-78
2022/01/03 12:05:53;;;;;;;0.70;0.70;;;4.30;99.90;;;;;;5073365;28;20434;-78
2022/01/03 12:08:25;;;;;;;0.60;0.60;;;4.30;99.90;;;;;;5061620;28;20211;-78
2022/01/03 12:10:52;;;;;;;0.50;0.50;;;4.40;99.90;;;;;;5070974;28;20208;-78
2022/01/03 12:13:20;;;;;;;0.50;0.50;;;4.40;99.90;;;;;;5055192;28;20204;-79
2022/01/03 12:15:58;;;;;;;0.70;0.70;;;4.40;99.90;;;;;;5054054;28;20562;-77
2022/01/03 12:18:30;;;;;;;0.80;0.80;;;4.30;99.90;;;;;;5054944;28;20200;-76
2022/01/03 12:20:56;;;;;;;0.60;0.60;;;4.40;99.90;;;;;;5055174;28;20196;-77
2022/01/03 12:23:43;;;;;;;0.80;0.80;;;4.30;99.90;;;;;;5054801;28;20217;-76
2022/01/03 12:26:14;;;;;;;0.60;0.60;;;4.40;99.90;;;;;;5054150;28;20212;-76
2022/01/03 12:29:05;;;;;;;0.60;0.60;;;4.30;99.90;;;;;;5070682;28;20636;-77
2022/01/03 12:32:02;;;;;;;0.57;0.57;;;4.40;99.90;;;;;;5071782;28;20204;-76
2022/01/03 12:34:28;;;;;;;0.73;0.73;;;4.40;99.90;;;;;;5053633;28;20291;-78
2022/01/03 12:37:18;;;;;;;0.70;0.70;;;4.40;99.90;;;;;;5071790;28;20284;-79
2022/01/03 12:40:05;;;;;;;0.60;0.60;;;4.40;99.90;;;;;;5052299;28;20702;-78
2022/01/03 12:42:48;;;;;;;0.70;0.70;;;4.40;99.90;;;;;;5071707;28;20208;-79
2022/01/03 12:45:16;;;;;;;1.10;1.00;;;4.40;99.90;;;;;;5035851;28;20206;-77
2022/01/03 12:47:43;;;;;;;0.50;0.50;;;4.40;99.90;;;;;;5036444;28;21108;-77
2022/01/03 12:50:28;;;;;;;1.40;1.30;;;4.40;99.90;;;;;;5053835;28;20197;-77
2022/01/03 12:52:59;;;;;;;0.50;0.50;;;4.50;99.90;;;;;;5037335;28;20223;-77
2022/01/03 12:55:36;;;;;;;0.60;0.60;;;4.50;99.90;;;;;;5071229;28;20208;-78
2022/01/03 12:58:22;;;;;;;0.60;0.60;;;4.40;99.90;;;;;;5064055;28;20691;-78
2022/01/03 13:00:49;;;;;;;0.60;0.60;;;4.40;99.90;;;;;;5041282;28;20273;-77
2022/01/03 13:03:37;;;;;;;0.60;0.60;;;4.40;99.90;;;;;;5070447;28;20193;-78
2022/01/03 13:06:07;;;;;;;0.70;0.70;;;4.40;99.90;;;;;;5064093;28;20192;-78
2022/01/03 13:08:34;;;;;;;0.60;0.60;;;4.40;99.90;;;;;;5070707;28;20208;-78
2022/01/03 13:11:01;;;;;;;0.63;0.63;;;4.40;99.90;;;;;;5071061;28;20201;-78
2022/01/03 13:13:28;;;;;;;0.60;0.60;;;4.40;99.90;;;;;;5068108;28;20203;-78
2022/01/03 13:15:55;;;;;;;0.90;0.90;;;4.40;99.90;;;;;;5054173;28;20295;-78
2022/01/03 13:18:21;;;;;;;0.80;0.80;;;4.40;99.90;;;;;;5054292;28;20193;-77
2022/01/03 13:20:58;;;;;;;0.70;0.70;;;4.40;99.90;;;;;;5072105;28;20201;-77
2022/01/03 13:23:24;;;;;;;1.50;1.40;;;4.40;99.90;;;;;;5052831;28;20680;-77
2022/01/03 13:25:50;;;;;;;0.55;0.55;;;4.40;99.90;;;;;;5072630;28;20201;-74
2022/01/03 13:28:16;;;;;;;0.77;0.77;;;4.50;99.90;;;;;;5071582;28;20725;-77